createdAt,value
2019-01-03T00:01:56.770Z,6.28
2019-01-03T00:04:52.802Z,6.37
2019-01-03T00:07:45.220Z,6.39
2019-01-03T00:10:30.971Z,6.18
2019-01-03T00:13:33.382Z,5.64
2019-01-03T00:16:32.243Z,5.74
2019-01-03T00:19:28.240Z,5.84
2019-01-03T00:22:12.035Z,5.83
2019-01-03T00:25:16.608Z,5.95
2019-01-03T00:28:16.334Z,5.88
2019-01-03T00:31:01.748Z,5.88
2019-01-03T00:33:54.715Z,5.80
2019-01-03T00:36:39.997Z,5.75
2019-01-03T00:39:29.371Z,5.80
2019-01-03T00:42:22.134Z,5.92
2019-01-03T00:45:07.609Z,5.90
2019-01-03T00:48:12.735Z,6.01
2019-01-03T00:51:09.402Z,5.96
2019-01-03T00:53:54.723Z,5.92
2019-01-03T00:56:39.839Z,5.94
2019-01-03T00:59:28.137Z,5.93
2019-01-03T01:02:24.069Z,5.84
2019-01-03T01:05:16.892Z,5.85
2019-01-03T01:08:09.703Z,5.90
2019-01-03T01:11:01.437Z,5.84
2019-01-03T01:13:59.148Z,5.75
2019-01-03T01:16:48.827Z,5.43
2019-01-03T01:19:28.633Z,5.63
2019-01-03T01:22:13.631Z,5.61
2019-01-03T01:24:59.086Z,5.69
2019-01-03T01:27:44.390Z,5.85
2019-01-03T01:30:29.522Z,5.74
2019-01-03T01:33:30.388Z,5.78
2019-01-03T01:36:29.362Z,5.68
2019-01-03T01:39:19.256Z,5.61
2019-01-03T01:42:05.039Z,5.66
2019-01-03T01:45:09.999Z,5.64
2019-01-03T01:47:56.815Z,5.74
2019-01-03T01:50:41.864Z,5.58
2019-01-03T01:53:25.286Z,5.29
2019-01-03T01:56:10.632Z,5.07
2019-01-03T01:59:03.358Z,4.98
2019-01-03T02:01:52.718Z,4.99
2019-01-03T02:04:48.571Z,5.15
2019-01-03T02:07:35.406Z,5.23
2019-01-03T02:10:35.381Z,5.29
2019-01-03T02:13:22.177Z,5.29
2019-01-03T02:16:09.619Z,5.54
2019-01-03T02:19:06.246Z,5.46
2019-01-03T02:21:57.942Z,5.35
2019-01-03T02:24:43.078Z,5.45
2019-01-03T02:27:29.098Z,5.52
2019-01-03T02:30:07.756Z,5.64
2019-01-03T02:32:53.220Z,5.72
2019-01-03T02:35:50.237Z,5.50
2019-01-03T02:38:40.095Z,5.69
2019-01-03T02:41:25.543Z,5.61
2019-01-03T02:44:24.480Z,5.76
2019-01-03T02:47:10.049Z,5.56
2019-01-03T02:49:58.912Z,5.53
2019-01-03T02:52:46.703Z,5.38
2019-01-03T02:55:39.660Z,5.31
2019-01-03T02:58:24.961Z,5.41
2019-01-03T03:01:10.413Z,5.40
2019-01-03T03:03:49.953Z,5.35
2019-01-03T03:06:55.018Z,5.37
2019-01-03T03:09:43.089Z,5.55
2019-01-03T03:12:15.584Z,5.74
2019-01-03T03:15:00.932Z,5.73
2019-01-03T03:17:46.444Z,5.86
2019-01-03T03:20:27.747Z,5.96
2019-01-03T03:23:04.638Z,5.97
2019-01-03T03:25:50.164Z,6.02
2019-01-03T03:28:51.899Z,5.94
2019-01-03T03:31:47.788Z,5.95
2019-01-03T03:34:43.751Z,5.97
2019-01-03T03:37:42.320Z,6.02
2019-01-03T03:40:47.365Z,6.04
2019-01-03T03:43:34.187Z,6.03
2019-01-03T03:46:29.781Z,6.00
2019-01-03T03:49:15.274Z,5.94
2019-01-03T03:52:17.322Z,5.89
2019-01-03T03:55:09.682Z,5.72
2019-01-03T03:58:14.614Z,5.60
2019-01-03T04:01:04.053Z,5.53
2019-01-03T04:04:08.800Z,5.45
2019-01-03T04:07:01.497Z,5.27
2019-01-03T04:09:50.823Z,5.15
2019-01-03T04:12:52.414Z,5.20
2019-01-03T04:15:50.067Z,5.24
2019-01-03T04:18:45.520Z,5.36
2019-01-03T04:21:36.982Z,5.42
2019-01-03T04:24:23.812Z,5.37
2019-01-03T04:27:13.481Z,5.35
2019-01-03T04:30:17.133Z,5.46
2019-01-03T04:33:19.194Z,5.48
2019-01-03T04:36:21.136Z,5.45
2019-01-03T04:39:23.042Z,5.49
2019-01-03T04:42:12.719Z,5.52
2019-01-03T04:45:02.175Z,5.41
2019-01-03T04:47:55.039Z,5.53
2019-01-03T04:50:40.203Z,5.40
2019-01-03T04:53:24.490Z,5.39
2019-01-03T04:56:09.804Z,5.45
2019-01-03T04:58:49.493Z,5.52
2019-01-03T05:02:22.463Z,5.43
2019-01-03T05:05:09.266Z,5.40
2019-01-03T05:07:57.385Z,5.55
2019-01-03T05:10:50.606Z,5.55
2019-01-03T05:13:42.982Z,5.59
2019-01-03T05:16:28.204Z,5.58
2019-01-03T05:19:30.145Z,5.61
2019-01-03T05:22:15.257Z,5.55
2019-01-03T05:25:00.885Z,5.52
2019-01-03T05:27:46.386Z,5.29
2019-01-03T05:30:42.170Z,5.33
2019-01-03T05:33:27.414Z,5.34
2019-01-03T05:36:26.345Z,5.43
2019-01-03T05:39:12.356Z,5.34
2019-01-03T05:41:59.158Z,5.41
2019-01-03T05:44:54.739Z,5.43
2019-01-03T05:47:41.551Z,5.53
2019-01-03T05:50:43.268Z,5.42
2019-01-03T05:53:30.151Z,5.37
2019-01-03T05:56:15.574Z,5.52
2019-01-03T05:59:02.370Z,5.45
2019-01-03T06:02:04.376Z,5.55
2019-01-03T06:04:49.933Z,5.58
2019-01-03T06:07:35.198Z,5.74
2019-01-03T06:10:22.261Z,5.82
2019-01-03T06:13:11.234Z,5.78
2019-01-03T06:16:00.646Z,5.73
2019-01-03T06:18:45.895Z,5.74
2019-01-03T06:21:31.115Z,5.77
2019-01-03T06:24:33.214Z,5.77
2019-01-03T06:27:18.562Z,5.78
2019-01-03T06:30:05.371Z,5.82
2019-01-03T06:32:55.010Z,5.78
2019-01-03T06:35:41.819Z,5.85
2019-01-03T06:38:29.706Z,5.77
2019-01-03T06:41:27.847Z,5.70
2019-01-03T06:44:20.550Z,5.57
2019-01-03T06:47:06.153Z,5.65
2019-01-03T06:49:51.748Z,5.57
2019-01-03T06:52:36.971Z,5.43
2019-01-03T06:55:23.795Z,5.42
2019-01-03T06:58:09.251Z,5.40
2019-01-03T07:00:54.771Z,5.33
2019-01-03T07:03:44.309Z,5.45
2019-01-03T07:06:29.367Z,5.40
2019-01-03T07:09:28.266Z,5.45
2019-01-03T07:12:21.471Z,5.58
2019-01-03T07:15:07.004Z,5.52
2019-01-03T07:17:52.332Z,5.54
2019-01-03T07:20:56.364Z,5.42
2019-01-03T07:23:41.183Z,5.55
2019-01-03T07:26:26.605Z,5.66
2019-01-03T07:29:05.367Z,5.63
2019-01-03T07:31:50.874Z,5.63
2019-01-03T07:34:37.627Z,5.60
2019-01-03T07:37:22.957Z,5.42
2019-01-03T07:40:09.693Z,5.46
2019-01-03T07:42:59.100Z,5.31
2019-01-03T07:45:45.588Z,5.48
2019-01-03T07:48:35.140Z,5.46
2019-01-03T07:51:20.830Z,5.34
2019-01-03T07:54:25.413Z,5.52
2019-01-03T07:57:10.850Z,5.57
2019-01-03T07:59:56.487Z,5.54
2019-01-03T08:02:52.098Z,5.49
2019-01-03T08:05:51.055Z,5.40
2019-01-03T08:08:46.598Z,5.60
2019-01-03T08:11:45.234Z,5.62
2019-01-03T08:14:31.995Z,5.71
2019-01-03T08:17:33.913Z,5.64
2019-01-03T08:20:19.400Z,5.62
2019-01-03T08:23:04.638Z,5.66
2019-01-03T08:25:51.435Z,5.63
2019-01-03T08:28:47.389Z,5.69
2019-01-03T08:31:47.185Z,5.82
2019-01-03T08:34:32.820Z,5.72
2019-01-03T08:37:18.005Z,5.75
2019-01-03T08:40:04.832Z,5.73
2019-01-03T08:43:00.433Z,5.74
2019-01-03T08:45:50.342Z,5.89
2019-01-03T08:48:35.807Z,5.81
2019-01-03T08:51:21.702Z,5.84
2019-01-03T08:54:14.629Z,5.85
2019-01-03T08:56:56.155Z,6.05
2019-01-03T08:59:53.981Z,6.19
2019-01-03T09:02:52.825Z,6.06
2019-01-03T09:05:38.362Z,6.08
2019-01-03T09:08:23.555Z,6.10
2019-01-03T09:11:28.669Z,6.22
2019-01-03T09:14:13.823Z,6.21
2019-01-03T09:17:06.720Z,6.24
2019-01-03T09:19:52.121Z,6.15
2019-01-03T09:22:47.750Z,6.12
2019-01-03T09:25:37.516Z,6.14
2019-01-03T09:28:39.542Z,6.11
2019-01-03T09:31:32.267Z,6.11
2019-01-03T09:34:36.912Z,6.16
2019-01-03T09:37:26.931Z,6.22
2019-01-03T09:40:26.124Z,6.31
2019-01-03T09:43:14.541Z,6.26
2019-01-03T09:45:44.490Z,6.26
2019-01-03T09:48:10.916Z,6.42
2019-01-03T09:50:38.122Z,6.36
2019-01-03T09:53:05.386Z,6.47
2019-01-03T09:55:32.680Z,6.58
2019-01-03T09:57:59.904Z,6.58
2019-01-03T10:00:27.159Z,6.69
2019-01-03T10:02:54.396Z,6.61
2019-01-03T10:05:21.677Z,6.72
2019-01-03T10:07:48.932Z,6.88
2019-01-03T10:10:16.186Z,6.88
2019-01-03T10:12:43.413Z,6.94
2019-01-03T10:15:10.691Z,6.92
2019-01-03T10:17:37.947Z,6.84
2019-01-03T10:20:05.881Z,6.85
2019-01-03T10:22:33.224Z,6.78
2019-01-03T10:25:00.449Z,6.86
2019-01-03T10:27:27.714Z,6.84
2019-01-03T10:29:54.940Z,6.81
2019-01-03T10:32:22.239Z,6.81
2019-01-03T10:34:49.448Z,6.83
2019-01-03T10:37:16.676Z,6.72
2019-01-03T10:39:43.938Z,6.81
2019-01-03T10:42:11.161Z,6.80
2019-01-03T10:44:38.419Z,6.73
2019-01-03T10:47:05.652Z,6.72
2019-01-03T10:49:32.850Z,6.84
2019-01-03T10:52:00.124Z,6.85
2019-01-03T10:54:27.379Z,6.90
2019-01-03T10:56:54.608Z,6.93
2019-01-03T10:59:21.873Z,6.87
2019-01-03T11:01:49.105Z,6.90
2019-01-03T11:04:16.323Z,6.86
2019-01-03T11:06:43.582Z,6.71
2019-01-03T11:09:10.820Z,6.77
2019-01-03T11:11:38.097Z,6.98
2019-01-03T11:14:05.311Z,6.92
2019-01-03T11:16:32.621Z,6.80
2019-01-03T11:19:00.328Z,6.70
2019-01-03T11:21:27.649Z,6.70
2019-01-03T11:23:57.814Z,6.61
2019-01-03T11:26:25.099Z,6.66
2019-01-03T11:28:52.980Z,6.84
2019-01-03T11:31:20.218Z,6.69
2019-01-03T11:33:47.449Z,6.55
2019-01-03T11:36:14.732Z,6.72
2019-01-03T11:38:42.090Z,6.88
2019-01-03T11:41:09.368Z,6.98
2019-01-03T11:43:36.625Z,6.91
2019-01-03T11:46:03.939Z,6.88
2019-01-03T11:48:31.144Z,6.78
2019-01-03T11:50:58.393Z,6.73
2019-01-03T11:53:25.682Z,6.85
2019-01-03T11:55:52.966Z,6.87
2019-01-03T11:58:20.192Z,6.90
2019-01-03T12:00:47.426Z,6.77
2019-01-03T12:03:14.683Z,6.88
2019-01-03T12:05:41.911Z,7.00
2019-01-03T12:08:09.132Z,7.02
2019-01-03T12:10:36.401Z,7.20
2019-01-03T12:13:03.622Z,7.25
2019-01-03T12:15:30.849Z,7.30
2019-01-03T12:17:58.105Z,7.40
2019-01-03T12:20:25.417Z,7.47
2019-01-03T12:22:52.653Z,7.52
2019-01-03T12:25:19.975Z,7.32
2019-01-03T12:27:47.296Z,6.97
2019-01-03T12:30:14.550Z,6.89
2019-01-03T12:32:41.796Z,6.98
2019-01-03T12:35:09.008Z,6.87
2019-01-03T12:37:37.207Z,6.94
2019-01-03T12:40:04.988Z,6.91
2019-01-03T12:42:32.246Z,6.84
2019-01-03T12:44:59.484Z,6.81
2019-01-03T12:47:26.684Z,6.81
2019-01-03T12:49:53.962Z,6.96
2019-01-03T12:52:21.235Z,7.17
2019-01-03T12:54:48.444Z,7.23
2019-01-03T12:57:15.736Z,7.35
2019-01-03T12:59:42.949Z,7.30
2019-01-03T13:02:10.153Z,7.40
2019-01-03T13:04:37.422Z,7.51
2019-01-03T13:07:04.953Z,7.48
2019-01-03T13:09:32.218Z,7.59
2019-01-03T13:11:59.450Z,7.61
2019-01-03T13:14:26.723Z,7.63
2019-01-03T13:16:54.341Z,7.61
2019-01-03T13:19:24.365Z,7.61
2019-01-03T13:21:51.616Z,7.65
2019-01-03T13:24:20.017Z,7.55
2019-01-03T13:26:47.391Z,7.46
2019-01-03T13:29:14.610Z,7.30
2019-01-03T13:31:41.861Z,7.48
2019-01-03T13:34:09.146Z,7.46
2019-01-03T13:36:36.370Z,7.55
2019-01-03T13:39:05.984Z,7.48
2019-01-03T13:41:33.260Z,7.48
2019-01-03T13:44:00.607Z,7.33
2019-01-03T13:46:27.835Z,7.41
2019-01-03T13:48:55.124Z,7.36
2019-01-03T13:51:22.331Z,7.43
2019-01-03T13:53:49.604Z,7.43
2019-01-03T13:56:16.873Z,7.39
2019-01-03T13:58:44.088Z,7.34
2019-01-03T14:01:11.492Z,7.35
2019-01-03T14:03:38.717Z,7.36
2019-01-03T14:06:05.929Z,7.27
2019-01-03T14:08:33.189Z,7.27
2019-01-03T14:11:00.432Z,7.46
2019-01-03T14:13:27.657Z,7.53
2019-01-03T14:15:54.941Z,7.55
2019-01-03T14:18:22.188Z,7.51
2019-01-03T14:20:49.445Z,7.55
2019-01-03T14:23:16.723Z,7.56
2019-01-03T14:25:43.944Z,7.54
2019-01-03T14:28:11.189Z,7.31
2019-01-03T14:30:38.523Z,7.12
2019-01-03T14:33:05.755Z,7.09
2019-01-03T14:35:33.029Z,7.05
2019-01-03T14:38:00.251Z,7.10
2019-01-03T14:40:27.450Z,7.22
2019-01-03T14:42:54.772Z,7.26
2019-01-03T14:45:22.107Z,7.34
2019-01-03T14:47:49.333Z,7.26
2019-01-03T14:50:16.579Z,7.29
2019-01-03T14:52:43.880Z,7.26
2019-01-03T14:55:11.106Z,7.12
2019-01-03T14:57:38.369Z,7.30
2019-01-03T15:00:07.793Z,7.33
2019-01-03T15:02:35.029Z,7.31
2019-01-03T15:05:02.447Z,7.28
2019-01-03T15:07:29.671Z,7.22
2019-01-03T15:09:56.910Z,7.28
2019-01-03T15:12:25.566Z,7.23
2019-01-03T15:14:52.843Z,7.14
2019-01-03T15:17:20.084Z,7.13
2019-01-03T15:19:47.303Z,7.06
2019-01-03T15:22:14.567Z,7.07
2019-01-03T15:24:41.868Z,7.18
2019-01-03T15:27:09.121Z,7.09
2019-01-03T15:29:36.355Z,7.04
2019-01-03T15:32:03.708Z,7.19
2019-01-03T15:34:30.962Z,7.15
2019-01-03T15:36:58.230Z,7.18
2019-01-03T15:39:25.453Z,7.25
2019-01-03T15:41:52.696Z,7.27
2019-01-03T15:44:19.957Z,7.24
2019-01-03T15:46:47.198Z,7.14
2019-01-03T15:49:14.519Z,7.14
2019-01-03T15:51:41.742Z,6.99
2019-01-03T15:54:09.029Z,6.94
2019-01-03T15:56:36.311Z,6.99
2019-01-03T15:59:03.565Z,6.96
2019-01-03T16:01:30.791Z,7.00
2019-01-03T16:03:58.034Z,6.88
2019-01-03T16:06:25.253Z,7.03
2019-01-03T16:08:52.501Z,7.14
2019-01-03T16:11:19.764Z,7.20
2019-01-03T16:13:46.959Z,7.10
2019-01-03T16:16:14.178Z,7.05
2019-01-03T16:18:42.096Z,7.15
2019-01-03T16:21:09.317Z,7.04
2019-01-03T16:23:36.559Z,6.94
2019-01-03T16:26:03.777Z,6.91
2019-01-03T16:28:31.044Z,7.10
2019-01-03T16:30:58.344Z,7.15
2019-01-03T16:33:25.597Z,7.14
2019-01-03T16:35:53.110Z,7.21
2019-01-03T16:38:20.370Z,7.02
2019-01-03T16:40:47.581Z,6.94
2019-01-03T16:43:14.872Z,7.02
2019-01-03T16:45:42.128Z,7.01
2019-01-03T16:48:09.362Z,6.99
2019-01-03T16:50:36.606Z,6.94
2019-01-03T16:53:03.824Z,6.91
2019-01-03T16:55:32.873Z,6.86
2019-01-03T16:58:00.114Z,7.09
2019-01-03T17:00:27.315Z,7.01
2019-01-03T17:02:54.578Z,6.96
2019-01-03T17:05:21.808Z,6.96
2019-01-03T17:07:49.032Z,7.01
2019-01-03T17:10:17.443Z,6.90
2019-01-03T17:12:44.711Z,6.84
2019-01-03T17:15:11.978Z,6.84
2019-01-03T17:17:39.219Z,6.75
2019-01-03T17:20:07.850Z,6.86
2019-01-03T17:22:35.065Z,6.86
2019-01-03T17:25:02.400Z,6.68
2019-01-03T17:27:29.610Z,6.75
2019-01-03T17:29:56.937Z,6.72
2019-01-03T17:32:24.191Z,6.45
2019-01-03T17:34:51.426Z,6.52
2019-01-03T17:37:18.705Z,6.44
2019-01-03T17:39:45.949Z,6.42
2019-01-03T17:42:13.187Z,6.45
2019-01-03T17:44:40.409Z,6.26
2019-01-03T17:47:07.655Z,6.45
2019-01-03T17:49:34.860Z,6.34
2019-01-03T17:52:02.118Z,6.38
2019-01-03T17:54:29.479Z,6.43
2019-01-03T17:56:56.712Z,6.45
2019-01-03T17:59:24.113Z,6.47
2019-01-03T18:01:52.466Z,6.45
2019-01-03T18:04:19.717Z,6.37
2019-01-03T18:06:46.948Z,6.32
2019-01-03T18:09:14.241Z,6.49
2019-01-03T18:11:41.520Z,6.39
2019-01-03T18:14:09.007Z,6.41
2019-01-03T18:16:36.261Z,6.50
2019-01-03T18:19:03.506Z,6.53
2019-01-03T18:21:31.044Z,6.50
2019-01-03T18:23:58.268Z,6.56
2019-01-03T18:26:25.539Z,6.54
2019-01-03T18:28:52.819Z,6.47
2019-01-03T18:31:20.956Z,6.39
2019-01-03T18:33:48.267Z,6.49
2019-01-03T18:36:15.515Z,6.46
2019-01-03T18:38:42.971Z,6.19
2019-01-03T18:41:10.234Z,6.42
2019-01-03T18:43:37.483Z,6.48
2019-01-03T18:46:04.733Z,6.35
2019-01-03T18:48:31.968Z,6.41
2019-01-03T18:50:59.204Z,6.34
2019-01-03T18:53:26.455Z,6.49
2019-01-03T18:55:53.752Z,6.37
2019-01-03T18:58:20.979Z,6.47
2019-01-03T19:00:48.257Z,6.43
2019-01-03T19:03:15.507Z,6.51
2019-01-03T19:05:42.728Z,6.45
2019-01-03T19:08:10.313Z,6.48
2019-01-03T19:10:37.531Z,6.53
2019-01-03T19:13:04.812Z,6.30
2019-01-03T19:15:32.073Z,6.38
2019-01-03T19:17:59.295Z,6.50
2019-01-03T19:20:26.529Z,6.46
2019-01-03T19:22:53.806Z,6.39
2019-01-03T19:25:21.461Z,6.33
2019-01-03T19:27:49.076Z,6.35
2019-01-03T19:30:16.577Z,6.30
2019-01-03T19:32:44.035Z,6.19
2019-01-03T19:35:11.511Z,6.18
2019-01-03T19:37:38.819Z,6.21
2019-01-03T19:40:07.876Z,6.13
2019-01-03T19:42:35.201Z,6.09
2019-01-03T19:45:02.454Z,6.15
2019-01-03T19:47:29.723Z,6.04
2019-01-03T19:49:56.964Z,6.06
2019-01-03T19:52:24.228Z,6.05
2019-01-03T19:54:51.510Z,6.19
2019-01-03T19:57:18.766Z,6.25
2019-01-03T19:59:46.015Z,6.18
2019-01-03T20:02:13.263Z,6.20
2019-01-03T20:04:40.499Z,6.34
2019-01-03T20:07:07.735Z,6.20
2019-01-03T20:09:35.067Z,6.11
2019-01-03T20:12:02.316Z,6.11
2019-01-03T20:14:29.531Z,6.25
2019-01-03T20:16:56.834Z,6.17
2019-01-03T20:19:24.073Z,6.14
2019-01-03T20:21:51.294Z,6.14
2019-01-03T20:24:18.545Z,6.29
2019-01-03T20:26:45.782Z,6.21
2019-01-03T20:29:13.055Z,6.15
2019-01-03T20:31:40.287Z,6.23
2019-01-03T20:34:07.554Z,6.23
2019-01-03T20:36:34.790Z,6.28
2019-01-03T20:39:02.047Z,6.09
2019-01-03T20:41:29.344Z,6.18
2019-01-03T20:43:56.643Z,6.20
2019-01-03T20:46:23.891Z,6.21
2019-01-03T20:48:51.224Z,6.20
2019-01-03T20:51:18.498Z,6.20
2019-01-03T20:53:45.748Z,6.11
2019-01-03T20:56:13.045Z,6.14
2019-01-03T20:58:40.335Z,6.22
2019-01-03T21:01:07.602Z,5.96
2019-01-03T21:03:34.872Z,5.98
2019-01-03T21:06:02.160Z,6.19
2019-01-03T21:08:29.393Z,6.03
2019-01-03T21:10:56.760Z,6.13
2019-01-03T21:13:24.346Z,6.20
2019-01-03T21:15:51.574Z,6.23
2019-01-03T21:18:18.811Z,6.29
2019-01-03T21:20:46.060Z,6.21
2019-01-03T21:23:13.311Z,6.16
2019-01-03T21:25:40.545Z,6.19
2019-01-03T21:28:07.829Z,6.14
2019-01-03T21:30:35.159Z,6.23
2019-01-03T21:33:03.805Z,6.31
2019-01-03T21:35:31.311Z,6.35
2019-01-03T21:38:01.371Z,6.35
2019-01-03T21:40:28.622Z,6.41
2019-01-03T21:42:58.452Z,6.55
2019-01-03T21:45:25.694Z,6.64
2019-01-03T21:47:53.054Z,6.55
2019-01-03T21:50:20.303Z,6.67
2019-01-03T21:52:47.552Z,6.69
2019-01-03T21:55:14.816Z,6.74
2019-01-03T21:57:42.079Z,6.77
2019-01-03T22:00:11.745Z,6.57
2019-01-03T22:02:38.969Z,6.72
2019-01-03T22:05:06.335Z,6.83
2019-01-03T22:07:33.615Z,6.72
2019-01-03T22:10:00.857Z,6.77
2019-01-03T22:12:28.073Z,6.85
2019-01-03T22:14:55.316Z,6.81
2019-01-03T22:17:22.558Z,6.90
2019-01-03T22:19:49.799Z,6.83
2019-01-03T22:22:17.008Z,6.85
2019-01-03T22:24:44.217Z,6.87
2019-01-03T22:27:11.495Z,6.91
2019-01-03T22:29:38.700Z,6.92
2019-01-03T22:32:05.961Z,6.93
2019-01-03T22:34:33.233Z,7.00
2019-01-03T22:37:00.461Z,7.05
2019-01-03T22:39:27.680Z,6.98
2019-01-03T22:41:54.976Z,6.90
2019-01-03T22:44:22.514Z,6.63
2019-01-03T22:46:49.735Z,6.67
2019-01-03T22:49:16.992Z,6.86
2019-01-03T22:51:44.248Z,6.77
2019-01-03T22:54:11.534Z,6.88
2019-01-03T22:56:38.787Z,6.80
2019-01-03T22:59:06.016Z,6.71
2019-01-03T23:01:33.394Z,6.72
2019-01-03T23:04:00.607Z,6.85
2019-01-03T23:06:27.819Z,6.90
2019-01-03T23:08:55.051Z,6.88
2019-01-03T23:11:22.271Z,6.93
2019-01-03T23:13:49.515Z,6.91
2019-01-03T23:16:16.757Z,6.93
2019-01-03T23:18:43.975Z,7.05
2019-01-03T23:21:11.238Z,7.10
2019-01-03T23:23:38.583Z,6.93
2019-01-03T23:26:08.372Z,6.97
2019-01-03T23:28:35.621Z,6.85
2019-01-03T23:31:02.828Z,6.77
2019-01-03T23:33:30.129Z,7.02
2019-01-03T23:35:57.357Z,6.97
2019-01-03T23:38:24.609Z,7.07
2019-01-03T23:40:51.847Z,7.16
2019-01-03T23:43:19.093Z,7.24
2019-01-03T23:45:46.374Z,7.30
2019-01-03T23:48:13.759Z,7.18
2019-01-03T23:50:41.070Z,7.29
2019-01-03T23:53:10.678Z,7.38
2019-01-03T23:55:44.880Z,7.46
2019-01-03T23:58:12.222Z,7.42
